ウィーン の空港の天気 - METARとTAF

ウィーン国際空港 ( LOWW / VIE ) - オーストリア ウィーン
飛行場実況気象(Metar)
観測時間04/21 18:50 CEST (04/21 16:50 UTC)
風向・風速北東 2m/s
視程10km以上
天気現象
なし
気温19℃
湿度32%
気圧1018hPa
METARLOWW 211650Z 04004KT CAVOK 19/02 Q1018 NOSIG
過去の天気等 Google飛行場航空写真 Wunderground天気予報

過去48時間のMETAR

飛行場予報(TAF)
発表時間: 4/21 16:15 CEST (4/21 14:15 UTC)
予報対象時間: 21日17時 CEST ~ 22日23時 CEST
風向・風速北北東 4m/s
視程10km以上
なし
21日19時 CEST ~ 21日21時 CEST に徐々に
風向・風速不定 1m/s
22日9時 CEST ~ 22日11時 CEST に徐々に
風向・風速東北東 4m/s
22日13時 CEST ~ 22日15時 CEST に徐々に
風向・風速東南東 6m/s
22日19時 CEST ~ 22日23時 CEST に一時的に
風向・風速東南東 8m/s 瞬間風速 13m/s
TAF LOWW 211415Z 2115/2221 02007KT CAVOK TX21/2115Z TN07/2204Z
BECMG 2117/2119 VRB02KT
BECMG 2207/2209 07008KT
BECMG 2211/2213 11012KT
TEMPO 2217/2221 12015G25KT